Time;durP1;ratioP1;P1;durP2;ratioP2;P2;SDS_P1;SDS_P2;PMS_P1;PMS_P2;Temp;Humidity;BMP_temperature;BMP_pressure;BME280_temperature;BME280_humidity;BME280_pressure;Samples;Min_cycle;Max_cycle;Signal;HPM_P1;HPM_P2
2020/12/04 00:31:37;;;;;;;33.67;26.43;;;;;;;0.39;61.83;95813.19;8137859;29;20629;-76
2020/12/04 00:35:39;;;;;;;37.73;28.90;;;;;;;0.51;61.21;95811.06;8139060;29;20216;-75
2020/12/04 00:39:43;;;;;;;35.67;27.73;;;;;;;0.67;61.04;95806.22;8119279;29;20221;-84
2020/12/04 02:06:42;;;;;;;32.30;25.97;;;;;;;1.13;59.69;95730.41;8442854;23;20258;-78
2020/12/04 02:10:49;;;;;;;33.07;26.30;;;;;;;1.42;58.87;95734.25;8168114;29;20204;-77
2020/12/04 02:14:52;;;;;;;33.63;26.93;;;;;;;1.10;59.36;95725.44;8168830;29;20608;-77
2020/12/04 02:18:53;;;;;;;32.93;26.30;;;;;;;1.04;59.70;95723.16;8168082;29;20306;-77
2020/12/04 02:22:56;;;;;;;34.90;26.80;;;;;;;0.91;60.28;95713.47;8167403;29;20238;-77
2020/12/04 02:26:58;;;;;;;33.67;26.37;;;;;;;0.98;60.08;95716.59;8168575;29;20263;-77
2020/12/04 02:31:00;;;;;;;36.13;27.70;;;;;;;1.13;59.90;95698.09;8167045;29;20651;-77
2020/12/04 02:35:01;;;;;;;32.57;26.70;;;;;;;1.43;59.20;95705.31;8168763;29;20208;-77
2020/12/04 02:39:04;;;;;;;34.93;27.00;;;;;;;1.23;59.64;95692.59;8167031;29;20243;-76
2020/12/04 02:43:06;;;;;;;31.87;26.63;;;;;;;0.93;60.15;95682.81;8168241;29;20223;-77
2020/12/04 02:47:07;;;;;;;33.17;26.83;;;;;;;1.17;60.18;95686.88;8168162;29;20240;-77
2020/12/04 02:51:09;;;;;;;33.60;27.00;;;;;;;1.17;60.33;95663.91;8167779;29;20219;-77
2020/12/04 02:55:12;;;;;;;35.13;26.00;;;;;;;1.00;61.33;95633.25;8167010;29;20215;-77
2020/12/04 02:59:14;;;;;;;36.40;28.33;;;;;;;0.75;61.91;95631.75;8168001;29;20210;-77
2020/12/04 03:03:15;;;;;;;35.33;27.37;;;;;;;0.74;62.29;95624.16;8167475;29;20685;-77
2020/12/04 03:07:17;;;;;;;35.80;27.70;;;;;;;0.92;62.42;95625.13;8137959;29;20239;-77
2020/12/04 03:11:20;;;;;;;38.57;29.30;;;;;;;0.87;62.16;95635.50;8136025;29;20228;-77
2020/12/04 03:15:22;;;;;;;38.57;29.67;;;;;;;0.94;62.18;95636.06;8135532;29;20208;-77
2020/12/04 03:19:24;;;;;;;38.93;29.00;;;;;;;0.77;62.69;95631.69;8136485;29;20200;-76
2020/12/04 03:23:25;;;;;;;38.50;28.33;;;;;;;1.35;61.41;95649.53;8135695;29;20572;-76
2020/12/04 03:27:28;;;;;;;35.10;28.07;;;;;;;0.93;62.34;95642.91;8135768;29;20215;-77
2020/12/04 03:31:30;;;;;;;38.40;28.47;;;;;;;0.82;63.20;95629.78;8136878;29;20208;-77
2020/12/04 03:35:31;;;;;;;37.90;28.20;;;;;;;0.80;63.27;95618.84;8135001;29;20224;-76
2020/12/04 03:39:33;;;;;;;34.90;27.77;;;;;;;0.96;63.21;95608.78;8135735;29;20588;-78
2020/12/04 03:43:40;;;;;;;36.17;28.63;;;;;;;1.08;63.25;95608.25;8139694;29;20520;-77
2020/12/04 03:47:42;;;;;;;35.93;28.07;;;;;;;0.55;64.36;95596.09;8141338;29;20231;-77
2020/12/04 03:51:44;;;;;;;35.13;26.93;;;;;;;0.53;64.87;95574.97;8142442;29;20220;-76
2020/12/04 03:55:46;;;;;;;36.30;26.47;;;;;;;0.60;65.10;95566.19;8141159;29;20204;-77
2020/12/04 03:59:48;;;;;;;31.40;25.00;;;;;;;0.72;64.56;95560.56;8141103;29;20208;-77
2020/12/04 04:03:50;;;;;;;31.97;24.90;;;;;;;1.27;63.12;95569.19;8141121;29;20336;-77
2020/12/04 04:07:51;;;;;;;35.07;26.10;;;;;;;1.64;61.55;95578.50;8142056;29;20216;-78
2020/12/04 04:11:53;;;;;;;32.60;25.07;;;;;;;1.61;61.48;95571.00;8140724;29;20220;-77
2020/12/04 04:15:56;;;;;;;32.00;24.87;;;;;;;1.85;60.86;95576.66;8140328;29;20224;-77
2020/12/04 04:19:58;;;;;;;32.27;25.47;;;;;;;1.66;61.58;95566.50;8140946;29;20259;-77
2020/12/04 04:23:59;;;;;;;32.93;24.93;;;;;;;1.59;61.67;95564.31;8140931;29;20224;-77
2020/12/04 04:28:01;;;;;;;32.47;24.63;;;;;;;1.65;61.27;95576.78;8139960;29;20216;-77
2020/12/04 04:32:04;;;;;;;31.63;24.63;;;;;;;1.79;60.96;95593.97;8140667;29;20250;-77
2020/12/04 04:36:06;;;;;;;32.13;24.20;;;;;;;1.92;60.77;95589.94;8139840;29;20204;-77
2020/12/04 04:40:07;;;;;;;30.73;24.43;;;;;;;2.24;60.37;95590.94;8140456;29;20216;-76
2020/12/04 04:44:11;;;;;;;33.30;24.93;;;;;;;2.01;60.92;95591.25;8140628;29;20225;-77
2020/12/04 04:48:17;;;;;;;31.47;25.37;;;;;;;2.01;60.43;95586.13;8139115;29;20259;-77
2020/12/04 04:52:19;;;;;;;33.03;26.50;;;;;;;1.89;61.27;95583.25;8140738;29;20227;-77
2020/12/04 04:56:21;;;;;;;32.63;25.13;;;;;;;1.71;61.71;95569.66;8138870;29;20212;-76
2020/12/04 05:00:25;;;;;;;32.87;26.00;;;;;;;1.41;62.39;95556.63;8140011;29;20707;-77
2020/12/04 05:04:47;;;;;;;32.20;25.70;;;;;;;2.08;61.14;95569.63;8140340;29;20687;-77
2020/12/04 05:08:51;;;;;;;35.27;26.77;;;;;;;2.31;59.91;95565.94;8140085;29;20564;-76
2020/12/04 05:13:00;;;;;;;33.37;26.03;;;;;;;2.05;60.65;95562.09;8137088;29;20279;-77
2020/12/04 05:17:08;;;;;;;32.23;26.13;;;;;;;2.27;60.50;95577.22;8124304;29;20201;-77
2020/12/04 05:21:11;;;;;;;34.83;26.03;;;;;;;2.10;60.37;95570.38;8142277;29;20271;-76
2020/12/04 05:25:14;;;;;;;31.93;24.93;;;;;;;2.07;60.44;95565.41;8138451;29;20212;-77
2020/12/04 05:29:16;;;;;;;30.97;24.70;;;;;;;2.27;59.91;95557.59;8138780;29;20212;-76
2020/12/04 05:33:18;;;;;;;31.90;24.83;;;;;;;2.47;59.55;95561.69;8139271;29;20212;-77
2020/12/04 05:37:21;;;;;;;33.60;25.27;;;;;;;2.07;60.61;95560.28;8138937;29;20208;-76
2020/12/04 05:41:23;;;;;;;32.27;25.10;;;;;;;2.21;60.87;95559.59;8139661;29;20656;-76
2020/12/04 05:45:25;;;;;;;29.57;23.83;;;;;;;2.32;60.36;95588.00;8139263;29;20219;-77
2020/12/04 05:49:27;;;;;;;33.93;25.23;;;;;;;2.21;60.50;95586.00;8138533;29;20565;-77
2020/12/04 05:53:30;;;;;;;31.13;24.70;;;;;;;2.28;59.98;95589.06;8138212;29;20223;-77
2020/12/04 05:57:42;;;;;;;29.67;24.27;;;;;;;2.36;59.78;95569.06;8136676;29;20287;-77
2020/12/04 06:01:44;;;;;;;31.60;24.30;;;;;;;2.28;60.21;95597.53;8137781;29;20220;-77
2020/12/04 06:05:46;;;;;;;31.60;23.67;;;;;;;2.42;59.75;95596.03;8133898;29;20253;-77
2020/12/04 06:09:49;;;;;;;31.67;24.53;;;;;;;2.53;59.83;95592.06;8128516;29;20287;-77
2020/12/04 06:13:50;;;;;;;30.40;24.03;;;;;;;2.60;59.10;95595.13;8134836;29;20232;-77
2020/12/04 06:18:02;;;;;;;32.17;25.43;;;;;;;2.57;59.24;95591.88;8131352;29;20577;-77
2020/12/04 06:22:05;;;;;;;31.30;25.23;;;;;;;2.13;59.84;95581.25;8137877;29;20221;-79
2020/12/04 06:26:10;;;;;;;32.17;25.43;;;;;;;2.30;60.12;95577.03;8137621;29;20270;-77
2020/12/04 06:30:14;;;;;;;31.23;24.80;;;;;;;2.08;60.41;95578.09;8136141;29;20231;-77
2020/12/04 06:34:17;;;;;;;30.87;24.23;;;;;;;2.02;60.84;95572.44;8136966;29;20220;-80
2020/12/04 06:38:43;;;;;;;32.30;24.93;;;;;;;2.14;60.48;95567.56;8126679;29;20261;-78
2020/12/04 06:42:45;;;;;;;30.67;24.20;;;;;;;1.81;60.58;95564.94;8132735;29;20269;-77
2020/12/04 06:46:49;;;;;;;30.87;25.53;;;;;;;1.56;61.90;95572.91;8136087;29;20283;-78
2020/12/04 06:50:50;;;;;;;30.57;24.97;;;;;;;1.83;60.82;95567.41;8118965;29;20215;-77
2020/12/04 06:54:52;;;;;;;31.10;23.90;;;;;;;1.79;60.83;95586.31;8136217;29;20200;-77
2020/12/04 06:58:55;;;;;;;32.43;24.60;;;;;;;1.76;61.68;95577.91;8137487;29;20212;-77
2020/12/04 07:02:58;;;;;;;33.53;26.73;;;;;;;1.64;61.49;95568.31;8118611;29;20334;-78
2020/12/04 07:07:05;;;;;;;32.83;25.37;;;;;;;1.97;61.08;95595.66;8125365;29;20251;-77
2020/12/04 07:11:06;;;;;;;33.37;26.10;;;;;;;1.53;61.87;95591.75;8116242;29;20205;-78
2020/12/04 07:15:09;;;;;;;33.57;25.77;;;;;;;1.78;61.30;95593.16;8132908;29;20291;-77
2020/12/04 07:19:11;;;;;;;34.50;26.07;;;;;;;1.65;61.81;95590.34;8135422;29;20628;-77
2020/12/04 07:23:13;;;;;;;34.57;25.40;;;;;;;2.02;60.68;95592.88;8136188;29;20233;-77
2020/12/04 07:27:17;;;;;;;30.53;23.87;;;;;;;1.86;60.97;95596.16;8135582;29;20204;-77
2020/12/04 07:31:20;;;;;;;32.73;24.83;;;;;;;2.37;60.15;95610.78;8135644;29;20204;-79
2020/12/04 07:35:23;;;;;;;31.67;23.73;;;;;;;2.12;60.68;95606.88;8129430;29;20552;-77
2020/12/04 07:39:28;;;;;;;28.90;22.77;;;;;;;2.64;59.37;95621.34;8130758;29;20550;-77
2020/12/04 07:43:30;;;;;;;30.03;24.50;;;;;;;2.35;59.91;95614.22;8136274;29;20220;-77
2020/12/04 07:47:34;;;;;;;31.13;24.60;;;;;;;2.75;58.56;95631.84;8135698;29;20204;-78
2020/12/04 07:51:37;;;;;;;31.10;24.23;;;;;;;2.52;58.39;95630.44;8135444;29;20304;-78
2020/12/04 07:55:39;;;;;;;29.23;24.00;;;;;;;2.42;59.09;95631.78;8136321;29;20204;-77
2020/12/04 07:59:41;;;;;;;39.07;27.47;;;;;;;2.27;59.85;95631.66;8134444;29;20223;-77
2020/12/04 08:03:48;;;;;;;31.47;25.83;;;;;;;2.43;59.20;95626.63;8135160;29;20240;-77
2020/12/04 08:07:51;;;;;;;31.93;25.57;;;;;;;2.39;59.35;95620.00;8137075;29;20252;-77
2020/12/04 08:11:54;;;;;;;29.90;23.57;;;;;;;2.76;59.37;95635.22;8130194;29;20244;-77
2020/12/04 08:15:56;;;;;;;29.13;23.83;;;;;;;2.69;57.89;95620.22;8109452;29;20335;-80
2020/12/04 08:20:00;;;;;;;32.50;25.27;;;;;;;2.87;57.95;95632.97;8105725;29;20587;-78
2020/12/04 08:24:02;;;;;;;27.40;21.83;;;;;;;2.71;57.66;95631.19;8127120;29;20240;-78
2020/12/04 08:28:05;;;;;;;29.23;23.40;;;;;;;2.23;59.59;95634.41;8124316;29;20235;-78
2020/12/04 08:32:13;;;;;;;32.37;23.40;;;;;;;2.70;58.41;95628.69;8139267;29;20213;-77
2020/12/04 08:36:15;;;;;;;29.13;23.53;;;;;;;2.61;58.56;95631.72;8140475;29;20636;-78
2020/12/04 08:40:22;;;;;;;29.63;24.47;;;;;;;2.78;58.14;95620.63;8141286;29;20204;-78
2020/12/04 08:44:25;;;;;;;28.83;23.30;;;;;;;2.81;58.32;95618.75;8140899;29;20233;-78
2020/12/04 08:48:28;;;;;;;28.40;21.80;;;;;;;2.40;59.09;95621.69;8140350;29;20219;-78
2020/12/04 08:52:39;;;;;;;27.37;22.13;;;;;;;2.86;66.74;95629.59;8140130;29;20228;-75
2020/12/04 08:56:51;;;;;;;26.47;18.97;;;;;;;5.09;57.96;95613.88;8137213;29;20629;-75
2020/12/04 09:00:54;;;;;;;25.70;20.57;;;;;;;4.32;53.96;95620.88;8136697;29;20209;-75
2020/12/04 09:04:56;;;;;;;24.90;21.60;;;;;;;4.14;54.31;95601.47;8129289;29;20444;-77
2020/12/04 09:08:59;;;;;;;26.30;20.37;;;;;;;3.51;54.81;95593.78;8134997;29;20205;-67
2020/12/04 09:13:01;;;;;;;28.63;22.13;;;;;;;2.97;56.97;95584.72;8126120;29;20228;-69
2020/12/04 09:17:03;;;;;;;30.30;22.57;;;;;;;2.66;57.62;95591.41;8139128;29;20264;-69
2020/12/04 09:21:05;;;;;;;27.60;19.93;;;;;;;2.76;58.13;95610.50;8136348;29;20228;-70
2020/12/04 09:25:09;;;;;;;28.97;20.47;;;;;;;2.42;57.57;95567.94;8128845;29;20233;-70
2020/12/04 09:29:11;;;;;;;26.63;20.67;;;;;;;2.35;58.43;95585.31;8119917;29;20209;-71
2020/12/04 09:33:12;;;;;;;26.03;19.30;;;;;;;2.59;58.32;95529.59;8137905;29;20263;-69
2020/12/04 09:37:17;;;;;;;24.13;19.20;;;;;;;2.91;57.31;95517.69;8131997;29;20539;-69
2020/12/04 09:41:20;;;;;;;23.53;18.80;;;;;;;2.78;56.60;95538.84;8134456;29;20234;-74
2020/12/04 09:45:21;;;;;;;22.03;18.50;;;;;;;3.16;55.82;95590.56;8138443;29;20324;-74
2020/12/04 09:49:23;;;;;;;26.43;18.97;;;;;;;3.04;56.47;95578.41;8135044;29;20209;-73
2020/12/04 09:53:25;;;;;;;23.47;19.07;;;;;;;3.24;55.47;95544.91;8121747;29;20213;-74
2020/12/04 09:57:27;;;;;;;23.83;18.70;;;;;;;3.39;55.90;95553.50;8130524;29;20216;-75
2020/12/04 10:01:29;;;;;;;24.90;19.70;;;;;;;2.63;56.93;95536.19;8133624;29;20209;-74
2020/12/04 10:05:31;;;;;;;24.90;21.42;;;;;;;3.25;54.89;95535.50;8138533;29;20448;-77
2020/12/04 10:09:33;;;;;;;25.87;19.87;;;;;;;2.78;56.48;95529.47;8138050;29;20205;-78
2020/12/04 10:13:36;;;;;;;24.63;19.20;;;;;;;3.02;56.61;95524.78;8133768;29;20217;-77
2020/12/04 10:17:41;;;;;;;23.83;21.17;;;;;;;4.07;54.03;95527.53;8138069;29;20444;-80
2020/12/04 10:21:45;;;;;;;26.47;20.70;;;;;;;3.79;54.25;95517.19;8131551;29;20209;-78
2020/12/04 10:25:47;;;;;;;24.30;19.43;;;;;;;3.52;54.86;95530.59;8134315;29;20276;-77
2020/12/04 10:29:49;;;;;;;25.13;19.47;;;;;;;3.49;54.09;95507.75;8117452;29;20205;-74
2020/12/04 10:33:51;;;;;;;24.63;18.87;;;;;;;3.29;55.11;95504.56;8121128;29;20652;-74
2020/12/04 10:37:52;;;;;;;24.03;19.63;;;;;;;3.06;56.13;95495.56;8120991;29;20219;-73
2020/12/04 10:41:54;;;;;;;27.30;20.70;;;;;;;3.27;54.93;95479.97;8137520;29;20247;-74
2020/12/04 10:45:57;;;;;;;25.47;19.93;;;;;;;3.44;55.62;95463.69;8133558;29;20240;-78
2020/12/04 10:49:59;;;;;;;27.73;19.60;;;;;;;3.47;54.58;95484.81;8115655;29;20206;-78
2020/12/04 10:54:00;;;;;;;26.60;19.40;;;;;;;3.65;54.26;95482.94;8133928;29;20543;-77
2020/12/04 10:58:02;;;;;;;27.07;19.57;;;;;;;4.25;52.99;95499.19;8128974;29;20212;-75
2020/12/04 11:02:09;;;;;;;24.17;18.83;;;;;;;4.29;53.35;95490.41;8121893;29;20236;-75
2020/12/04 11:06:11;;;;;;;23.77;19.07;;;;;;;4.36;52.49;95496.84;8129738;29;20628;-77
2020/12/04 11:10:13;;;;;;;25.80;19.97;;;;;;;4.03;53.96;95499.59;8112287;29;20217;-76
2020/12/04 11:14:14;;;;;;;28.87;19.73;;;;;;;4.70;52.43;95481.97;8134305;29;20256;-76
2020/12/04 11:18:17;;;;;;;29.87;19.73;;;;;;;4.53;53.19;95474.47;8135417;29;20204;-77
2020/12/04 11:22:19;;;;;;;27.50;20.13;;;;;;;4.64;52.67;95456.72;8135432;29;20355;-75
2020/12/04 11:26:21;;;;;;;27.23;20.07;;;;;;;5.13;51.86;95452.88;8135399;29;20216;-77
2020/12/04 11:30:23;;;;;;;23.20;18.23;;;;;;;4.77;51.58;95447.34;8117292;29;20240;-76
2020/12/04 11:34:26;;;;;;;24.57;18.77;;;;;;;4.74;52.74;95439.88;8136635;29;20213;-80
2020/12/04 11:38:29;;;;;;;22.57;18.77;;;;;;;4.31;53.85;95450.16;8113350;29;20205;-79
2020/12/04 11:42:31;;;;;;;24.37;18.50;;;;;;;4.59;52.98;95445.91;8136102;29;20573;-76
2020/12/04 11:46:32;;;;;;;22.73;18.63;;;;;;;4.66;53.01;95432.66;8129824;29;20649;-77
2020/12/04 11:50:35;;;;;;;24.63;18.93;;;;;;;4.75;52.59;95448.38;8133680;29;20213;-77
2020/12/04 11:54:37;;;;;;;24.23;19.58;;;;;;;4.46;53.94;95444.09;8129551;29;20419;-77
2020/12/04 11:58:38;;;;;;;25.27;18.33;;;;;;;4.60;53.63;95445.00;8126638;29;20215;-78
2020/12/04 12:02:40;;;;;;;25.10;18.37;;;;;;;4.63;53.60;95440.53;8122485;29;20371;-76
2020/12/04 12:06:43;;;;;;;24.80;18.17;;;;;;;4.78;53.53;95436.19;8133479;29;20252;-76
2020/12/04 12:10:44;;;;;;;23.67;18.23;;;;;;;4.49;53.64;95431.13;8128584;29;20235;-78
2020/12/04 12:14:46;;;;;;;25.43;18.67;;;;;;;4.66;53.34;95424.13;8136180;29;20235;-78
2020/12/04 12:18:48;;;;;;;24.33;18.90;;;;;;;4.97;52.76;95417.09;8144032;29;20208;-79
2020/12/04 12:22:51;;;;;;;22.50;17.77;;;;;;;4.85;53.23;95410.97;8141683;29;20349;-75
2020/12/04 12:26:53;;;;;;;20.80;17.23;;;;;;;4.68;53.64;95407.75;8133877;29;20243;-76
2020/12/04 12:30:55;;;;;;;20.30;16.80;;;;;;;4.84;53.74;95415.28;8140357;29;20209;-77
2020/12/04 12:35:01;;;;;;;23.70;17.67;;;;;;;5.08;53.28;95419.78;8134987;29;20235;-77
2020/12/04 12:39:03;;;;;;;21.70;17.27;;;;;;;4.96;53.52;95415.44;8128239;29;20205;-76
2020/12/04 12:43:05;;;;;;;23.20;18.10;;;;;;;5.06;53.15;95411.38;8135614;29;20232;-74
2020/12/04 12:47:09;;;;;;;21.33;16.90;;;;;;;4.99;53.86;95399.84;8121746;29;20204;-74
2020/12/04 12:51:10;;;;;;;23.33;16.70;;;;;;;4.94;53.95;95396.78;8123698;29;20707;-74
2020/12/04 12:55:16;;;;;;;23.23;16.30;;;;;;;4.79;54.60;95406.25;8136675;29;20581;-74
2020/12/04 12:59:17;;;;;;;21.10;16.43;;;;;;;4.99;54.37;95399.84;8127202;29;20215;-79
2020/12/04 13:03:19;;;;;;;20.13;16.10;;;;;;;4.83;54.88;95395.69;8142266;29;20239;-77
2020/12/04 13:07:21;;;;;;;21.70;15.40;;;;;;;4.52;55.42;95390.84;8126256;29;20240;-78
2020/12/04 13:11:24;;;;;;;19.83;15.87;;;;;;;4.35;55.59;95399.53;8134185;29;20256;-77
2020/12/04 13:15:26;;;;;;;19.90;15.33;;;;;;;4.41;55.58;95399.97;8136993;29;20212;-79
2020/12/04 13:19:27;;;;;;;18.77;14.60;;;;;;;4.06;56.10;95402.13;8142566;29;20552;-78
2020/12/04 13:23:30;;;;;;;20.27;15.63;;;;;;;4.01;56.71;95389.56;8134513;29;20240;-78
2020/12/04 13:27:33;;;;;;;20.50;15.87;;;;;;;4.04;56.31;95388.59;8135453;29;20213;-77
2020/12/04 13:31:38;;;;;;;19.13;14.20;;;;;;;4.15;55.86;95380.22;8128063;29;20292;-80
2020/12/04 13:35:40;;;;;;;18.40;14.73;;;;;;;4.12;55.70;95376.13;8143496;29;20599;-80
2020/12/04 13:39:42;;;;;;;17.80;14.50;;;;;;;4.05;55.59;95377.41;8137132;29;20208;-77
2020/12/04 13:43:45;;;;;;;17.10;14.83;;;;;;;4.03;55.89;95376.69;8124473;29;20316;-75
2020/12/04 13:47:47;;;;;;;20.93;15.67;;;;;;;4.10;55.73;95378.78;8121356;29;20201;-77
2020/12/04 13:51:50;;;;;;;19.73;15.60;;;;;;;4.00;56.18;95369.16;8120673;29;20216;-75
2020/12/04 13:55:53;;;;;;;19.73;15.77;;;;;;;4.05;56.03;95367.97;8119915;29;20220;-76
2020/12/04 13:59:55;;;;;;;22.20;15.63;;;;;;;3.90;56.46;95369.75;8114456;29;20256;-76
2020/12/04 14:03:57;;;;;;;25.27;17.17;;;;;;;4.06;56.00;95373.94;8116964;29;20236;-76
2020/12/04 14:07:59;;;;;;;27.93;16.17;;;;;;;3.81;56.84;95361.75;8123545;29;20261;-76
2020/12/04 14:12:02;;;;;;;29.83;17.77;;;;;;;4.01;55.85;95368.25;8140831;29;20204;-79
2020/12/04 14:16:05;;;;;;;19.87;14.83;;;;;;;4.07;56.39;95366.16;8134215;29;20257;-79
2020/12/04 14:20:08;;;;;;;23.57;18.17;;;;;;;4.02;56.30;95377.59;8138063;29;20208;-75
2020/12/04 14:24:09;;;;;;;23.67;16.97;;;;;;;3.85;56.29;95374.28;8117598;29;20267;-76
2020/12/04 14:28:12;;;;;;;23.43;16.93;;;;;;;4.02;56.28;95378.41;8121992;29;20208;-76
2020/12/04 14:32:15;;;;;;;21.90;18.00;;;;;;;4.12;55.76;95376.13;8112576;29;20429;-72
2020/12/04 14:36:16;;;;;;;22.80;16.83;;;;;;;3.86;56.69;95393.84;8121396;29;20551;-72
2020/12/04 14:40:28;;;;;;;27.10;18.33;;;;;;;3.95;56.63;95387.38;8134077;29;20219;-71
2020/12/04 14:44:30;;;;;;;27.37;20.30;;;;;;;4.12;56.38;95391.50;8120288;29;20612;-72
2020/12/04 14:48:33;;;;;;;29.37;20.20;;;;;;;3.89;57.01;95365.50;8135347;29;20267;-71
2020/12/04 14:52:35;;;;;;;23.57;17.27;;;;;;;3.80;57.29;95360.13;8131955;29;20220;-69
2020/12/04 14:56:36;;;;;;;28.77;23.77;;;;;;;3.79;57.65;95372.09;8133814;29;20570;-67
2020/12/04 15:00:38;;;;;;;20.67;16.50;;;;;;;3.98;56.92;95361.59;8133668;29;20204;-67
2020/12/04 15:04:42;;;;;;;16.43;14.37;;;;;;;3.76;57.55;95350.97;8119145;29;20244;-67
2020/12/04 15:08:45;;;;;;;22.30;14.43;;;;;;;3.76;57.70;95356.91;8132220;29;20227;-67
2020/12/04 15:12:47;;;;;;;20.47;15.20;;;;;;;3.66;57.72;95358.38;8134439;29;20209;-68
2020/12/04 15:16:49;;;;;;;19.10;14.93;;;;;;;3.89;57.33;95352.72;8133439;29;20205;-74
2020/12/04 15:20:51;;;;;;;20.73;14.00;;;;;;;4.03;57.10;95348.50;8126097;29;20225;-75
2020/12/04 15:24:53;;;;;;;18.80;13.90;;;;;;;3.84;57.39;95348.78;8109279;29;20229;-76
2020/12/04 15:28:55;;;;;;;28.57;23.27;;;;;;;3.74;57.83;95345.13;8125661;29;20246;-75
2020/12/04 15:32:57;;;;;;;18.70;15.23;;;;;;;3.85;57.25;95348.69;8133936;29;20240;-78
2020/12/04 15:37:00;;;;;;;16.87;15.07;;;;;;;3.80;57.76;95353.25;8145070;29;20188;-83
2020/12/04 15:41:02;;;;;;;20.97;17.13;;;;;;;3.67;57.87;95345.47;8173834;29;20653;-80
2020/12/04 15:45:05;;;;;;;22.13;15.77;;;;;;;3.89;57.67;95345.03;8172210;29;20291;-84
2020/12/04 15:49:07;;;;;;;17.97;15.77;;;;;;;4.11;57.22;95336.03;8124357;29;20243;-86
2020/12/04 15:53:10;;;;;;;24.17;20.67;;;;;;;3.95;57.39;95323.34;8122576;29;20205;-79
2020/12/04 15:57:12;;;;;;;22.87;16.67;;;;;;;3.79;58.02;95326.03;8134441;29;20197;-79
2020/12/04 16:01:16;;;;;;;19.90;16.20;;;;;;;3.96;57.63;95330.13;8142935;29;20280;-79
2020/12/04 16:05:17;;;;;;;20.27;16.67;;;;;;;3.83;57.81;95336.91;8141627;29;20241;-79
2020/12/04 16:09:20;;;;;;;17.93;15.07;;;;;;;4.27;56.93;95362.38;8142025;29;20216;-80
2020/12/04 16:13:22;;;;;;;32.03;22.83;;;;;;;4.04;57.10;95352.72;8125280;29;20220;-78
2020/12/04 16:17:24;;;;;;;33.63;23.03;;;;;;;4.13;57.28;95377.75;8143613;29;20224;-79
2020/12/04 16:21:26;;;;;;;28.30;22.17;;;;;;;4.18;56.74;95367.25;8149248;29;20219;-78
2020/12/04 16:25:28;;;;;;;23.30;19.33;;;;;;;4.26;56.94;95370.97;8149739;29;20228;-79
2020/12/04 16:29:31;;;;;;;24.17;19.43;;;;;;;4.33;56.12;95384.25;8147540;29;20219;-79
2020/12/04 16:33:33;;;;;;;23.83;19.70;;;;;;;4.20;56.99;95371.34;8147665;29;20283;-79
2020/12/04 16:37:35;;;;;;;24.90;21.17;;;;;;;4.28;56.60;95369.19;8147172;29;20204;-80
2020/12/04 16:44:47;;;;;;;25.40;19.27;;;;;;;4.34;56.29;95391.03;8503004;27;20585;-83
2020/12/04 16:48:49;;;;;;;22.67;18.93;;;;;;;4.42;56.34;95396.50;8506550;27;20197;-83
2020/12/04 16:56:56;;;;;;;26.37;22.50;;;;;;;4.37;56.36;95384.91;8492668;27;20324;-78
2020/12/04 17:00:59;;;;;;;26.53;21.47;;;;;;;4.39;56.24;95401.81;8495334;28;20201;-79
2020/12/04 17:05:01;;;;;;;22.47;19.83;;;;;;;4.31;56.34;95393.78;8497533;28;20197;-81
2020/12/04 17:09:04;;;;;;;20.97;17.87;;;;;;;4.52;56.65;95419.84;8497233;28;20284;-81
2020/12/04 17:13:05;;;;;;;21.77;19.40;;;;;;;4.56;55.95;95420.47;8495665;28;20224;-80
2020/12/04 17:17:08;;;;;;;24.83;19.90;;;;;;;4.73;55.56;95427.97;8495532;28;20209;-81
2020/12/04 17:21:10;;;;;;;23.30;19.93;;;;;;;4.78;56.41;95446.47;8496749;28;20243;-82
2020/12/04 17:25:12;;;;;;;29.20;24.50;;;;;;;4.76;56.24;95432.06;8477561;27;20244;-82
2020/12/04 17:29:14;;;;;;;25.37;20.57;;;;;;;4.70;56.20;95428.13;8496726;27;20222;-79
2020/12/04 17:33:17;;;;;;;25.63;22.37;;;;;;;4.65;55.96;95432.75;8458058;27;20229;-84
2020/12/04 17:37:19;;;;;;;29.93;23.53;;;;;;;4.74;55.55;95426.22;8454253;27;20229;-82
2020/12/04 17:41:22;;;;;;;27.37;22.77;;;;;;;4.80;55.53;95425.84;8470708;28;20229;-78
2020/12/04 17:45:24;;;;;;;26.07;22.97;;;;;;;4.73;55.82;95422.00;8461777;28;20236;-79
2020/12/04 17:49:26;;;;;;;26.40;22.57;;;;;;;4.64;55.43;95429.34;8491937;28;20220;-78
2020/12/04 17:53:28;;;;;;;24.87;20.90;;;;;;;4.59;55.62;95439.06;8483689;28;20233;-78
2020/12/04 17:57:30;;;;;;;25.47;21.97;;;;;;;4.40;55.95;95441.91;8468568;28;20617;-78
2020/12/04 18:01:32;;;;;;;22.20;19.80;;;;;;;4.28;56.24;95434.94;8468731;28;20225;-78
2020/12/04 18:05:35;;;;;;;23.80;21.17;;;;;;;4.41;55.87;95453.78;8467273;28;20206;-79
2020/12/04 18:09:40;;;;;;;22.87;20.47;;;;;;;4.18;56.16;95434.66;8443147;28;20221;-78
2020/12/04 18:13:43;;;;;;;25.93;21.63;;;;;;;4.41;56.17;95420.47;8449463;28;20229;-78
2020/12/04 18:17:46;;;;;;;24.60;21.87;;;;;;;4.61;56.20;95436.41;8455906;28;20273;-78
2020/12/04 18:21:54;;;;;;;21.20;17.27;;;;;;;4.64;55.49;95431.09;8467948;28;20217;-77
2020/12/04 18:25:56;;;;;;;21.37;19.07;;;;;;;4.76;55.56;95425.22;8467337;28;20193;-77
2020/12/04 18:29:58;;;;;;;28.63;22.60;;;;;;;4.76;56.11;95437.19;8466619;28;20221;-77
2020/12/04 18:33:59;;;;;;;25.00;20.80;;;;;;;4.78;55.79;95441.31;8466476;28;20201;-78
2020/12/04 18:38:02;;;;;;;25.80;21.50;;;;;;;4.75;57.22;95459.44;8466447;28;20224;-78
2020/12/04 18:42:04;;;;;;;25.40;21.47;;;;;;;4.86;56.15;95457.06;8465778;28;20222;-79
2020/12/04 18:46:07;;;;;;;25.57;22.50;;;;;;;4.79;56.86;95465.22;8465448;28;20224;-78
2020/12/04 18:50:08;;;;;;;30.47;24.63;;;;;;;4.77;56.56;95456.81;8466022;28;20202;-77
2020/12/04 18:54:11;;;;;;;33.10;27.13;;;;;;;4.64;56.82;95447.28;8466913;28;20236;-77
2020/12/04 18:58:13;;;;;;;33.93;26.57;;;;;;;4.70;57.07;95443.50;8466226;28;20265;-76
2020/12/04 19:02:15;;;;;;;31.57;25.47;;;;;;;4.74;57.48;95444.16;8465855;28;20221;-76
2020/12/04 19:06:16;;;;;;;36.20;26.47;;;;;;;4.68;56.81;95435.09;8465063;28;20205;-76
2020/12/04 19:10:19;;;;;;;29.17;24.23;;;;;;;4.68;56.83;95438.50;8465612;28;20206;-77
2020/12/04 19:14:21;;;;;;;26.40;21.50;;;;;;;4.65;56.59;95438.69;8465450;28;20209;-77
2020/12/04 19:18:22;;;;;;;24.33;19.30;;;;;;;4.54;56.87;95433.38;8465672;28;20253;-74
2020/12/04 19:22:24;;;;;;;23.23;18.73;;;;;;;4.58;56.75;95434.03;8464557;28;20268;-76
2020/12/04 19:26:27;;;;;;;21.07;18.13;;;;;;;4.55;56.60;95429.06;8465783;28;20198;-77
2020/12/04 19:30:29;;;;;;;24.80;20.93;;;;;;;4.57;56.19;95433.22;8465771;28;20202;-76
2020/12/04 19:34:32;;;;;;;21.83;19.07;;;;;;;4.62;56.60;95431.16;8464929;28;20206;-75
2020/12/04 19:38:33;;;;;;;27.17;20.57;;;;;;;4.62;55.98;95426.03;8464038;28;20213;-76
2020/12/04 19:42:36;;;;;;;27.40;21.67;;;;;;;4.56;56.43;95423.03;8463839;28;20256;-74
2020/12/04 19:46:38;;;;;;;27.40;20.40;;;;;;;4.62;56.25;95428.59;8463334;28;20206;-74
2020/12/04 19:50:40;;;;;;;28.63;20.23;;;;;;;4.68;56.22;95453.03;8463202;28;20564;-74
2020/12/04 19:54:41;;;;;;;22.47;18.77;;;;;;;4.63;56.73;95455.91;8463194;28;20234;-74
2020/12/04 19:58:44;;;;;;;21.57;18.20;;;;;;;4.63;56.51;95463.59;8462934;28;20210;-75
2020/12/04 20:02:46;;;;;;;24.70;18.50;;;;;;;4.62;56.65;95448.28;8463176;28;20225;-75
2020/12/04 20:06:47;;;;;;;23.33;19.53;;;;;;;4.50;56.67;95445.56;8462650;28;20221;-75
2020/12/04 20:10:49;;;;;;;21.13;17.50;;;;;;;4.57;56.93;95445.19;8462273;28;20202;-74
2020/12/04 20:14:52;;;;;;;20.20;17.87;;;;;;;4.52;57.01;95460.84;8462549;28;20216;-74
2020/12/04 20:18:53;;;;;;;20.53;16.80;;;;;;;4.59;56.73;95422.84;8462391;28;20644;-75
2020/12/04 20:22:55;;;;;;;20.30;17.10;;;;;;;4.56;56.44;95430.72;8461500;28;20224;-75
2020/12/04 20:26:58;;;;;;;22.60;19.23;;;;;;;4.55;56.13;95419.66;8461990;28;20209;-75
2020/12/04 20:31:01;;;;;;;21.53;18.23;;;;;;;4.61;55.94;95449.22;8462510;28;20197;-76
2020/12/04 20:35:03;;;;;;;27.10;23.53;;;;;;;4.53;55.96;95433.47;8454158;28;20221;-76
2020/12/04 20:39:05;;;;;;;28.07;23.53;;;;;;;4.60;56.35;95414.25;8460712;28;20193;-76
2020/12/04 20:43:06;;;;;;;34.00;25.97;;;;;;;4.65;55.81;95414.78;8460687;28;20228;-77
2020/12/04 20:47:09;;;;;;;25.27;20.47;;;;;;;4.64;56.33;95400.31;8458133;28;20233;-76